Tiempo atmosférico en la estación meteorológica de Teruel, Santa Eulalia del Campo, Teruel (1000 m.)



Fecha
DESCASC
Temp. máxima en grados centígrados (hora)
DESCASC
Temp. mínima en grados centígrados (hora)
DESCASC
Temp. media en grados centígrados
DESCASC
Racha de viento máxima en m/sg (hora)
DESCASC
Velocidad máxima media en intervalos de 10 minutos(hora)
DESCASC
Precipitaciones diarias en mm
DESCASC
Precipitaciones de 00:00 a 06:00 en mm
DESCASC
Precipitaciones de 06:00 a 12:00 en mm
DESCASC
Precipitaciones de 12:00 a 18:00 en mm
DESCASC
Precipitaciones de 18:00 a 24:00 en mm
DESCASC

Gráficas

Temp. máximas Temp. mínimas Temp. medias Precipitaciones Rachas de viento máximas Velocidades máximas media en intervalos de 10 minutos

Datos horarios

Fecha y hora oficial Temperatura (ºC) Velocidad del viento (km/h) Dirección del viento Racha (km/h) Dirección de racha Precipitación (mm) Presión (hPa) Tendencia (hPa) Humedad (%)
2019-08-19 23:00:00 22.1 14 Sur 26 Sudeste 0 -- -- 72
2019-08-19 22:00:00 22.1 12 Sudeste 24 Este 0 -- -- 66
2019-08-19 21:00:00 23 15 Este 27 Este 0 -- -- 56
2019-08-19 20:00:00 24.4 17 Este 32 Nordeste 0 -- -- 49
2019-08-19 19:00:00 25.5 19 Nordeste 38 Nordeste 0 -- -- 45
2019-08-19 18:00:00 27.2 23 Nordeste 41 Este 0 -- -- 41
2019-08-19 17:00:00 30.8 15 Noroeste 35 Oeste 0 -- -- 27
2019-08-19 16:00:00 31.7 20 Sudoeste 41 Sudoeste 0 -- -- 19
2019-08-19 15:00:00 32.2 23 Sudoeste 38 Sudoeste 0 -- -- 19
2019-08-19 14:00:00 31.2 16 Sur 29 Sur 0 -- -- 26
2019-08-19 13:00:00 27.8 12 Sur 21 Sur 0 -- -- 38
2019-08-19 12:00:00 24.5 7 Sur 14 Sur 0 -- -- 46
2019-08-19 11:00:00 20.9 6 Sudeste 18 Norte 0 -- -- 57
2019-08-19 10:00:00 18.3 12 Nordeste 28 Norte 0 -- -- 67
2019-08-19 09:00:00 15.9 16 Norte 24 Norte 0 -- -- 76
2019-08-19 08:00:00 14.3 9 Norte 15 Nordeste 0 -- -- 83
2019-08-19 07:00:00 13.8 10 Nordeste 18 Nordeste 0 -- -- 86
2019-08-19 06:00:00 14.6 13 Norte 22 Norte 0 -- -- 85
2019-08-19 05:00:00 15 12 Norte 23 Norte 0 -- -- 84
2019-08-19 04:00:00 16.2 13 Norte 19 Norte 0 -- -- 79
2019-08-19 03:00:00 16.4 4 Norte 10 Nordeste 0 -- -- 75
2019-08-19 02:00:00 17.6 3 Nordeste 9 Noroeste 0 -- -- 61
2019-08-19 01:00:00 20.5 6 Noroeste 14 Norte 0 -- -- 49
2019-08-19 00:00:00 21.9 7 Norte 17 Nordeste 0 -- -- 30
2019-08-18 23:00:00 26.2 10 Noroeste 15 Noroeste 0 -- -- 23
2019-08-18 22:00:00 26.7 8 Oeste 17 Oeste 0 -- -- 22
2019-08-18 21:00:00 29.2 9 Oeste 25 Noroeste 0 -- -- 20
2019-08-18 20:00:00 31.3 14 Oeste 35 Oeste 0 -- -- 17
2019-08-18 19:00:00 33.5 14 Oeste 31 Oeste 0 -- -- 16
2019-08-18 18:00:00 34.6 16 Oeste 36 Sudoeste 0 -- -- 15
2019-08-18 17:00:00 34.3 16 Oeste 35 Oeste 0 -- -- 15
2019-08-18 16:00:00 34.9 13 Oeste 38 Sudoeste 0 -- -- 16
2019-08-18 15:00:00 34.7 17 Oeste 38 Oeste 0 -- -- 16
2019-08-18 14:00:00 34.2 16 Oeste 37 Oeste 0 -- -- 17
2019-08-18 13:00:00 33.1 19 Sudoeste 40 Oeste 0 -- -- 17
2019-08-18 12:00:00 31.9 11 Sudoeste 24 Sur 0 -- -- 22
2019-08-18 11:00:00 28 15 Sur 24 Sur 0 -- -- 36
2019-08-18 10:00:00 24.4 13 Sur 20 Sudoeste 0 -- -- 48
2019-08-18 09:00:00 20.7 8 Sur 15 Sur 0 -- -- 63
2019-08-18 08:00:00 18.1 9 Sudoeste 17 Sur 0 -- -- 70
2019-08-18 07:00:00 18.1 10 Sur 19 Sudoeste 0 -- -- 71
2019-08-18 06:00:00 17.8 8 Sur 15 Sudoeste 0 -- -- 74
2019-08-18 05:00:00 18.6 10 Sudoeste 13 Sudoeste 0 -- -- 72
2019-08-18 04:00:00 19.6 6 Sudoeste 17 Sudeste 0 -- -- 69
2019-08-18 03:00:00 20.5 5 Nordeste 20 Sur 0 -- -- 65
2019-08-18 02:00:00 22.8 13 Sur 22 Sur 0 -- -- 57
2019-08-18 01:00:00 20.8 9 Sur 15 Sudoeste 0 -- -- 69
2019-08-18 00:00:00 21.9 11 Sur 25 Sur 0 -- -- 63
2019-08-17 23:00:00 23.7 7 Sudoeste 17 Sudoeste 0 -- -- 51
2019-08-17 22:00:00 25.5 7 Oeste 17 Oeste 0 -- -- 26
2019-08-17 21:00:00 29.1 6 Oeste 23 Oeste 0 -- -- 21
2019-08-17 20:00:00 32.7 10 Noroeste 27 Oeste 0 -- -- 18
2019-08-17 19:00:00 33.5 14 Oeste 26 Oeste 0 -- -- 18
2019-08-17 18:00:00 34.9 15 Oeste 30 Oeste 0 -- -- 16
2019-08-17 17:00:00 33.2 9 Sudoeste 23 Norte 0 -- -- 19
2019-08-17 16:00:00 34.9 12 Noroeste 32 Noroeste 0 -- -- 17
2019-08-17 15:00:00 34.5 14 Noroeste 35 Noroeste 0 -- -- 17
2019-08-17 14:00:00 33.9 16 Noroeste 45 Noroeste 0 -- -- 17
2019-08-17 13:00:00 32.8 17 Noroeste 33 Noroeste 0 -- -- 18
2019-08-17 12:00:00 31.1 6 Sudeste 14 Sur 0 -- -- 32
2019-08-17 11:00:00 26.5 10 Sudoeste 15 Sur 0 -- -- 48
2019-08-17 10:00:00 22.2 9 Sur 13 Sur 0 -- -- 66
2019-08-17 09:00:00 18.8 8 Sur 11 Sur 0 -- -- 83
2019-08-17 08:00:00 16.5 2 Sudoeste 10 Sudoeste 0 -- -- 89
2019-08-17 07:00:00 16.2 5 Sur 10 Sudoeste 0 -- -- 89
2019-08-17 06:00:00 17.2 7 Sudoeste 14 Oeste 0 -- -- 87
2019-08-17 05:00:00 17.3 10 Sudoeste 13 Sudoeste 0 -- -- 90
2019-08-17 04:00:00 17.6 4 Sudoeste 10 Sudoeste 0 -- -- 90
2019-08-17 03:00:00 18.8 6 Sur 18 Sur 0 -- -- 85
2019-08-17 02:00:00 19.8 10 Sur 19 Sur 0 -- -- 82
2019-08-17 01:00:00 19.8 9 Sudoeste 16 Sudoeste 0 -- -- 82
2019-08-17 00:00:00 20.9 11 Sudoeste 21 Sudoeste 0 -- -- 78
2019-08-16 23:00:00 22.3 14 Sudoeste 21 Sudoeste 0 -- -- 72
2019-08-16 22:00:00 24.8 16 Sudoeste 24 Oeste 0 -- -- 58
2019-08-16 21:00:00 27.9 12 Sudeste 23 Sudeste 0 -- -- 45
2019-08-16 20:00:00 31.6 15 Noroeste 27 Noroeste 0 -- -- 22
2019-08-16 19:00:00 33.3 14 Noroeste 33 Noroeste 0 -- -- 20
2019-08-16 18:00:00 34 8 Nordeste 15 Nordeste 0 -- -- 24
2019-08-16 17:00:00 32.2 4 Sudeste 13 Sudoeste 0 -- -- 26
2019-08-16 16:00:00 32.2 9 Noroeste 21 Sudoeste 0 -- -- 28
2019-08-16 15:00:00 31.9 4 Sur 19 Sur 0 -- -- 30
2019-08-16 14:00:00 30.1 10 Sur 22 Sudeste 0 -- -- 33
2019-08-16 13:00:00 28.4 9 Sur 23 Sur 0 -- -- 37
2019-08-16 12:00:00 25.6 15 Sur 26 Sur 0 -- -- 46
2019-08-16 11:00:00 23.2 16 Sur 24 Sur 0 -- -- 53
2019-08-16 10:00:00 21 16 Sur 23 Sur 0 -- -- 60
2019-08-16 09:00:00 18.4 6 Sur 9 Sur 0 -- -- 59
2019-08-16 08:00:00 14.7 2 Sur 6 Noroeste 0 -- -- 70
2019-08-16 07:00:00 13.8 5 Oeste 8 Oeste 0 -- -- 73
2019-08-16 06:00:00 14.1 4 Sudoeste 7 Noroeste 0 -- -- 71
2019-08-16 05:00:00 15.1 0 Calma 6 Sur 0 -- -- 67
2019-08-16 04:00:00 15.9 0 Calma 5 Norte 0 -- -- 64
2019-08-16 03:00:00 16.4 3 Nordeste 10 Norte 0 -- -- 62
2019-08-16 02:00:00 18.2 6 Norte 15 Noroeste 0 -- -- 57
2019-08-16 01:00:00 18.4 13 Norte 21 Noroeste 0 -- -- 56
2019-08-16 00:00:00 19 15 Norte 22 Noroeste 0 -- -- 53
2019-08-15 23:00:00 21.4 11 Nordeste 18 Sudeste 0 -- -- 49
2019-08-15 22:00:00 23.2 10 Sur 21 Este 0 -- -- 63
2019-08-15 21:00:00 25.8 15 Sudeste 26 Este 0 -- -- 43
2019-08-15 20:00:00 28.2 16 Norte 28 Este 0 -- -- 36
2019-08-15 19:00:00 29.6 16 Nordeste 35 Norte 0 -- -- 36
2019-08-15 18:00:00 31.2 13 Nordeste 28 Nordeste 0 -- -- 28
2019-08-15 17:00:00 30.6 13 Norte 24 Norte 0 -- -- 29
2019-08-15 16:00:00 31.1 8 Nordeste 21 Nordeste 0 -- -- 27
2019-08-15 15:00:00 30.8 10 Nordeste 24 Nordeste 0 -- -- 27
2019-08-15 14:00:00 29.7 11 Nordeste 23 Nordeste 0 -- -- 30
2019-08-15 13:00:00 27.4 6 Este 18 Este 0 -- -- 34
2019-08-15 12:00:00 24.9 5 Norte 14 Nordeste 0 -- -- 44
2019-08-15 11:00:00 22.7 8 Norte 21 Nordeste 0 -- -- 51
2019-08-15 10:00:00 19.4 15 Nordeste 25 Norte 0 -- -- 62
2019-08-15 09:00:00 16.7 8 Nordeste 13 Nordeste 0 -- -- 68
2019-08-15 08:00:00 13.6 0 Calma -- -- 0 -- -- 67
2019-08-15 07:00:00 11.6 0 Calma 6 Noroeste 0 -- -- 73
2019-08-15 06:00:00 13.3 0 Calma -- -- 0 -- -- 67
2019-08-15 05:00:00 14.4 0 Calma -- -- 0 -- -- 62
2019-08-15 04:00:00 14.6 0 Calma 0 Calma 0 -- -- 63
2019-08-15 03:00:00 15.7 3 Nordeste 15 Norte 0 -- -- 59
2019-08-15 02:00:00 17.6 10 Norte 15 Norte 0 -- -- 51
2019-08-15 01:00:00 18 5 Norte 16 Norte 0 -- -- 43
2019-08-15 00:00:00 19.4 11 Noroeste 19 Noroeste 0 -- -- 39
2019-08-14 23:00:00 21.4 9 Norte 14 Norte 0 -- -- 31
2019-08-14 22:00:00 21.7 3 Noroeste 9 Nordeste 0 -- -- 31
2019-08-14 21:00:00 25.5 8 Nordeste 20 Este 0 -- -- 25
2019-08-14 20:00:00 27.8 11 Nordeste 26 Nordeste 0 -- -- 22
2019-08-14 19:00:00 29.1 15 Nordeste 30 Nordeste 0 -- -- 21
2019-08-14 18:00:00 29.9 16 Nordeste 32 Nordeste 0 -- -- 21
2019-08-14 17:00:00 29.9 19 Nordeste 32 Norte 0 -- -- 20
2019-08-14 16:00:00 29.4 16 Nordeste 33 Nordeste 0 -- -- 21
2019-08-14 15:00:00 28.6 17 Nordeste 40 Nordeste 0 -- -- 23
2019-08-14 14:00:00 27.1 14 Norte 30 Norte 0 -- -- 28
2019-08-14 13:00:00 26.2 6 Norte 19 Norte 0 -- -- 34
2019-08-14 12:00:00 24.3 4 Sudeste 12 Sudeste 0 -- -- 42
2019-08-14 11:00:00 20.9 4 Sudeste 14 Sur 0 -- -- 55
2019-08-14 10:00:00 17.5 10 Sur 15 Sur 0 -- -- 67
2019-08-14 09:00:00 13.9 4 Sur 6 Sur 0 -- -- 67
2019-08-14 08:00:00 10.5 0 Calma -- -- 0 -- -- 74
2019-08-14 07:00:00 8.8 0 Calma -- -- 0 -- -- 77
2019-08-14 06:00:00 9.9 0 Calma -- -- 0 -- -- 72
2019-08-14 05:00:00 10 0 Calma -- -- 0 -- -- 70
2019-08-14 04:00:00 11.4 4 Noroeste 9 Noroeste 0 -- -- 64
2019-08-14 03:00:00 11.4 0 Calma -- -- 0 -- -- 64
2019-08-14 02:00:00 12.3 0 Calma 9 Norte 0 -- -- 63
2019-08-14 01:00:00 14.1 6 Norte 15 Noroeste 0 -- -- 56
2019-08-14 00:00:00 16 12 Noroeste 19 Noroeste 0 -- -- 50
2019-08-13 23:00:00 17.6 7 Noroeste 10 Noroeste 0 -- -- 42
2019-08-13 22:00:00 19.2 4 Norte 16 Este 0 -- -- 39
2019-08-13 21:00:00 21.9 10 Norte 19 Nordeste 0 -- -- 30
2019-08-13 20:00:00 24.2 8 Nordeste 27 Nordeste 0 -- -- 27
2019-08-13 19:00:00 25.3 13 Nordeste 30 Norte 0 -- -- 29
2019-08-13 18:00:00 26.2 14 Nordeste 32 Norte 0 -- -- 31
2019-08-13 17:00:00 26.1 13 Nordeste 26 Nordeste 0 -- -- 32
2019-08-13 16:00:00 25.2 12 Nordeste 23 Norte 0 -- -- 34
2019-08-13 15:00:00 24.9 9 Este 20 Norte 0 -- -- 37
2019-08-13 14:00:00 22.2 11 Norte 19 Norte 0 -- -- 43
2019-08-13 13:00:00 22 6 Nordeste 15 Sur 0 -- -- 42
2019-08-13 12:00:00 19.6 4 Este 13 Este 0 -- -- 44
2019-08-13 11:00:00 17.4 3 Sudeste 9 Noroeste 0 -- -- 45
2019-08-13 10:00:00 14.1 5 Norte 13 Norte 0 -- -- 57
2019-08-13 09:00:00 13.1 8 Norte 17 Norte 0 -- -- 60
2019-08-13 08:00:00 11.9 10 Norte 15 Norte 0 -- -- 66
2019-08-13 07:00:00 11.4 11 Norte 24 Norte 0 -- -- 67
2019-08-13 06:00:00 12.2 12 Norte 20 Norte 0 -- -- 64
2019-08-13 05:00:00 12.1 15 Norte 23 Norte 0 -- -- 63
2019-08-13 04:00:00 12.5 10 Norte 18 Norte 0 -- -- 61
2019-08-13 03:00:00 12 9 Norte 21 Norte 0 -- -- 66
2019-08-13 02:00:00 12.2 15 Norte 25 Norte 0 -- -- 67
2019-08-13 01:00:00 13.1 18 Norte 25 Norte 0 -- -- 63
2019-08-13 00:00:00 14 19 Norte 31 Norte 0 -- -- 59
2019-08-12 23:00:00 14.7 23 Norte 32 Norte 0 -- -- 57
2019-08-12 22:00:00 16 23 Norte 34 Norte 0 -- -- 51
2019-08-12 21:00:00 18.3 17 Nordeste 37 Norte 0 -- -- 41
2019-08-12 20:00:00 20.5 28 Norte 41 Norte 0 -- -- 36
2019-08-12 19:00:00 23.1 26 Norte 40 Norte 0 -- -- 31
2019-08-12 18:00:00 23.3 14 Norte 28 Norte 0 -- -- 28
2019-08-12 17:00:00 25.1 14 Nordeste 29 Nordeste 0 -- -- 26
2019-08-12 16:00:00 24.7 14 Nordeste 27 Norte 0 -- -- 27
2019-08-12 15:00:00 24.4 9 Nordeste 25 Nordeste 0 -- -- 30
2019-08-12 14:00:00 23.2 8 Nordeste 27 Norte 0 -- -- 36
2019-08-12 13:00:00 21.3 14 Nordeste 27 Norte 0 -- -- 44
2019-08-12 12:00:00 19.5 17 Nordeste 30 Norte 0 -- -- 50
2019-08-12 11:00:00 17.6 12 Norte 22 Norte 0 -- -- 59
2019-08-12 10:00:00 15.8 12 Norte 23 Norte 0 -- -- 66
2019-08-12 09:00:00 14.4 15 Norte 22 Norte 0 -- -- 73
2019-08-12 08:00:00 12.5 14 Norte 21 Norte 0 -- -- 80
2019-08-12 07:00:00 11.8 9 Norte 18 Norte 0 -- -- 81
2019-08-12 06:00:00 13.1 11 Norte 19 Norte 0 -- -- 77
2019-08-12 05:00:00 13.7 14 Norte 23 Norte 0 -- -- 74
2019-08-12 04:00:00 14.3 12 Norte 23 Norte 0 -- -- 71
2019-08-12 03:00:00 15.1 17 Norte 27 Norte 0 -- -- 68
2019-08-12 02:00:00 15.8 22 Norte 33 Norte 0 -- -- 65
2019-08-12 01:00:00 16.7 21 Norte 33 Norte 0 -- -- 63
2019-08-12 00:00:00 18 22 Norte 34 Norte 0 -- -- 59
2019-08-11 23:00:00 19.9 22 Norte 35 Norte 0 -- -- 51
2019-08-11 22:00:00 23.3 12 Nordeste 25 Noroeste 0 -- -- 24
2019-08-11 21:00:00 25.9 16 Noroeste 33 Noroeste 0 -- -- 19
2019-08-11 20:00:00 27.9 17 Noroeste 30 Noroeste 0 -- -- 17
2019-08-11 19:00:00 30.1 11 Sudoeste 27 Sudoeste 0 -- -- 17
2019-08-11 18:00:00 30.9 10 Oeste 35 Noroeste 0 -- -- 17
2019-08-11 17:00:00 30.3 17 Noroeste 33 Noroeste 0 -- -- 18
2019-08-11 16:00:00 31.7 15 Oeste 70 Oeste 0 -- -- 17
2019-08-11 15:00:00 31.3 11 Noroeste 28 Noroeste 0 -- -- 18
2019-08-11 14:00:00 29.4 14 Noroeste 33 Norte 0 -- -- 24
2019-08-11 13:00:00 28.2 6 Este 18 Nordeste 0 -- -- 37
2019-08-11 12:00:00 25.8 6 Nordeste 19 Norte 0 -- -- 46
2019-08-11 11:00:00 23.2 12 Norte 37 Norte 0 -- -- 52
2019-08-11 10:00:00 23.6 7 Sudeste 32 Norte 0 -- -- 52
2019-08-11 09:00:00 21.3 10 Sur 20 Sur 0 -- -- 68
2019-08-11 08:00:00 18.7 10 Sur 15 Sur 0 -- -- 76
2019-08-11 07:00:00 17.7 8 Sudoeste 19 Sur 0 -- -- 78
2019-08-11 06:00:00 18.3 13 Sur 20 Sur 0 -- -- 77
2019-08-11 05:00:00 18.5 11 Sur 22 Sur 0 -- -- 76
2019-08-11 04:00:00 19.1 12 Sur 21 Sur 0 -- -- 75
2019-08-11 03:00:00 20 15 Sur 28 Sur 0 -- -- 74
2019-08-11 02:00:00 20.8 19 Sur 29 Sur 0 -- -- 76
2019-08-11 01:00:00 21.1 9 Sudoeste 15 Sudoeste 0 -- -- 77
2019-08-11 00:00:00 22.1 5 Sur 12 Sur 0 -- -- 72
2019-08-10 23:00:00 24.1 10 Sur 21 Sur 0 -- -- 55
2019-08-10 22:00:00 25.1 6 Oeste 21 Oeste 0 -- -- 38
2019-08-10 21:00:00 28.7 9 Oeste 26 Oeste 0 -- -- 31
2019-08-10 20:00:00 30.6 15 Oeste 32 Oeste 0 -- -- 28
2019-08-10 19:00:00 32.5 14 Oeste 35 Sudoeste 0 -- -- 25
2019-08-10 18:00:00 33.3 16 Oeste 36 Oeste 0 -- -- 23
2019-08-10 17:00:00 32.8 21 Sudoeste 37 Sudoeste 0 -- -- 24
2019-08-10 16:00:00 32.9 20 Sudoeste 45 Sur 0 -- -- 25
2019-08-10 15:00:00 32 16 Sudoeste 34 Sudoeste 0 -- -- 30
2019-08-10 14:00:00 30.3 11 Sur 26 Sur 0 -- -- 36
2019-08-10 13:00:00 28.5 7 Sudeste 16 Sudeste 0 -- -- 41
2019-08-10 12:00:00 26 5 Nordeste 13 Norte 0 -- -- 48
2019-08-10 11:00:00 23.4 8 Nordeste 14 Norte 0 -- -- 54
2019-08-10 10:00:00 20.9 8 Nordeste 22 Norte 0 -- -- 59
2019-08-10 09:00:00 19 15 Norte 22 Norte 0 -- -- 66
2019-08-10 08:00:00 16.6 4 Nordeste 6 Nordeste 0 -- -- 76
2019-08-10 07:00:00 14.6 2 Nordeste 9 Nordeste 0 -- -- 83
2019-08-10 06:00:00 15 5 Nordeste 10 Norte 0 -- -- 82
2019-08-10 05:00:00 16.2 4 Oeste 9 Sur 0 -- -- 80
2019-08-10 04:00:00 16.9 5 Sudeste 9 Sur 0 -- -- 76
2019-08-10 03:00:00 17.6 2 Oeste 10 Norte 0 -- -- 76
2019-08-10 02:00:00 18.5 7 Nordeste 18 Norte 0 -- -- 72
2019-08-10 01:00:00 19.8 16 Norte 29 Norte 0 -- -- 69
2019-08-10 00:00:00 20.9 21 Norte 40 Nordeste 0 -- -- 67
2019-08-09 23:00:00 25.2 10 Noroeste 18 Oeste 0 -- -- 43
2019-08-09 22:00:00 26.9 7 Oeste 26 Noroeste 0 -- -- 39
2019-08-09 21:00:00 28.9 9 Oeste 31 Oeste 0 -- -- 34
2019-08-09 20:00:00 30.8 13 Oeste 30 Noroeste 0 -- -- 29
2019-08-09 19:00:00 32.4 15 Oeste 32 Oeste 0 -- -- 27
2019-08-09 18:00:00 32.5 20 Noroeste 33 Noroeste 0 -- -- 25
2019-08-09 17:00:00 33.7 14 Oeste 34 Noroeste 0 -- -- 24
2019-08-09 16:00:00 34.2 16 Oeste 37 Oeste 0 -- -- 23
2019-08-09 15:00:00 32.9 18 Noroeste 33 Noroeste 0 -- -- 24
2019-08-09 14:00:00 32.8 12 Sudoeste 31 Noroeste 0 -- -- 24
2019-08-09 13:00:00 31.5 11 Oeste 32 Noroeste 0 -- -- 26
2019-08-09 12:00:00 30.2 17 Noroeste 36 Oeste 0 -- -- 26
2019-08-09 11:00:00 29.1 11 Oeste 22 Oeste 0 -- -- 31
2019-08-09 10:00:00 26 10 Sur 17 Sur 0 -- -- 41
2019-08-09 09:00:00 22.8 6 Sur 10 Sudoeste 0 -- -- 47
2019-08-09 08:00:00 17.3 4 Sudoeste 8 Sur 0 -- -- 61
2019-08-09 07:00:00 14.7 3 Sudeste 7 Norte 0 -- -- 68
2019-08-09 06:00:00 16.6 0 Calma 9 Oeste 0 -- -- 61
2019-08-09 05:00:00 19.2 4 Sudoeste 10 Oeste 0 -- -- 53
2019-08-09 04:00:00 21 8 Sudoeste 12 Sudoeste 0 -- -- 48
2019-08-09 03:00:00 20.5 5 Sudoeste 12 Sudoeste 0 -- -- 48
2019-08-09 02:00:00 20.8 9 Sudoeste 13 Sudoeste 0 -- -- 48
2019-08-09 01:00:00 21.3 5 Oeste 12 Sudeste 0 -- -- 47
2019-08-09 00:00:00 22.4 5 Sudoeste 9 Sudoeste 0 -- -- 44
2019-08-08 23:00:00 23.6 3 Oeste 13 Oeste 0 -- -- 42
2019-08-08 22:00:00 25.2 5 Oeste 24 Oeste 0 -- -- 38
2019-08-08 21:00:00 29.3 10 Oeste 27 Oeste 0 -- -- 29
2019-08-08 20:00:00 31.1 14 Oeste 30 Oeste 0 -- -- 27
2019-08-08 19:00:00 32.6 14 Oeste 31 Noroeste 0 -- -- 25
2019-08-08 18:00:00 33.5 15 Oeste 37 Sudoeste 0 -- -- 24
2019-08-08 17:00:00 34.1 13 Oeste 26 Oeste 0 -- -- 25
2019-08-08 16:00:00 32.4 7 Nordeste 24 Nordeste 0 -- -- 27
2019-08-08 15:00:00 32.6 10 Nordeste 17 Este 0 -- -- 29
2019-08-08 14:00:00 31.2 8 Este 18 Este 0 -- -- 32
2019-08-08 13:00:00 28.8 10 Este 23 Sudeste 0 -- -- 33
2019-08-08 12:00:00 26.7 10 Sudeste 18 Sudeste 0 -- -- 35
2019-08-08 11:00:00 24.7 7 Sur 15 Sur 0 -- -- 41
2019-08-08 10:00:00 22.8 5 Sur 10 Sur 0 -- -- 45
2019-08-08 09:00:00 19.8 0 Calma 10 Noroeste 0 -- -- 53
2019-08-08 08:00:00 15.4 4 Sudoeste 8 Sur 0 -- -- 66
2019-08-08 07:00:00 14.8 0 Calma 10 Noroeste 0 -- -- 67
2019-08-08 06:00:00 15.3 5 Oeste 10 Oeste 0 -- -- 66
2019-08-08 05:00:00 15.9 4 Este 14 Noroeste 0 -- -- 62
2019-08-08 04:00:00 17.4 9 Noroeste 15 Noroeste 0 -- -- 58
2019-08-08 03:00:00 18.9 10 Noroeste 15 Noroeste 0 -- -- 53
2019-08-08 02:00:00 19.5 5 Noroeste 11 Noroeste 0 -- -- 51
2019-08-08 01:00:00 19.9 8 Noroeste 13 Noroeste 0 -- -- 47
2019-08-08 00:00:00 22 6 Oeste 15 Oeste 0 -- -- 38
2019-08-07 23:00:00 23.8 7 Oeste 17 Noroeste 0 -- -- 34
2019-08-07 22:00:00 24.6 5 Oeste 16 Oeste 0 -- -- 33
2019-08-07 21:00:00 25.2 7 Nordeste 13 Nordeste 0 -- -- 31
2019-08-07 20:00:00 26.9 5 Oeste 18 Oeste 0 -- -- 26
2019-08-07 19:00:00 27.7 6 Oeste 30 Noroeste 0 -- -- 25
2019-08-07 18:00:00 28.4 13 Oeste 28 Noroeste 0 -- -- 24
2019-08-07 17:00:00 28.3 15 Noroeste 30 Noroeste 0 -- -- 25
2019-08-07 16:00:00 29.6 15 Noroeste 27 Noroeste 0 -- -- 22
2019-08-07 15:00:00 29.1 8 Oeste 28 Oeste 0 -- -- 24
2019-08-07 14:00:00 27.7 10 Norte 20 Norte 0 -- -- 24
2019-08-07 13:00:00 27.4 6 Oeste 22 Oeste 0 -- -- 26
2019-08-07 12:00:00 26.4 11 Oeste 23 Noroeste 0 -- -- 28
2019-08-07 11:00:00 25.9 10 Noroeste 23 Noroeste 0 -- -- 31
2019-08-07 10:00:00 25.4 13 Noroeste 25 Noroeste 0 -- -- 33
2019-08-07 09:00:00 21.8 8 Sur 13 Sudoeste 0 -- -- 45
2019-08-07 08:00:00 20.4 9 Sudoeste 13 Sudoeste 0 -- -- 43
2019-08-07 07:00:00 18.1 3 Sudoeste 5 Sudoeste 0 -- -- 52
2019-08-07 06:00:00 18.2 0 Calma 10 Sur 0 -- -- 54
2019-08-07 05:00:00 18.1 6 Sur 9 Sur 0 -- -- 43
2019-08-07 04:00:00 18.6 3 Sur 9 Sur 0 -- -- 37
2019-08-07 03:00:00 19.6 4 Sudeste 14 Oeste 0 -- -- 31
2019-08-07 02:00:00 20.5 8 Sudoeste 16 Sur 0 -- -- 24
2019-08-07 01:00:00 21.2 4 Sur 10 Sur 0 -- -- 23
2019-08-07 00:00:00 23.2 7 Sudoeste 10 Sudoeste 0 -- -- 20
2019-08-06 23:00:00 22.1 2 Oeste 10 Sudoeste 0 -- -- 23
2019-08-06 22:00:00 26.6 8 Oeste 18 Oeste 0 -- -- 16
2019-08-06 21:00:00 29.4 7 Oeste 29 Oeste 0 -- -- 16
2019-08-06 20:00:00 31.8 17 Oeste 35 Oeste 0 -- -- 11
2019-08-06 19:00:00 32.9 17 Sudoeste 34 Sudoeste 0 -- -- 12
2019-08-06 18:00:00 34.5 15 Sudoeste 32 Sudoeste 0 -- -- 12
2019-08-06 17:00:00 35 14 Oeste 35 Sudoeste 0 -- -- 13
2019-08-06 16:00:00 34.8 9 Norte 23 Norte 0 -- -- 16
2019-08-06 15:00:00 33.8 12 Sur 27 Sudoeste 0 -- -- 16
2019-08-06 14:00:00 33.4 9 Sudoeste 24 Sudoeste 0 -- -- 18
2019-08-06 13:00:00 32.6 9 Noroeste 29 Noroeste 0 -- -- 17
2019-08-06 12:00:00 31.1 15 Noroeste 33 Noroeste 0 -- -- 19
2019-08-06 11:00:00 29.2 7 Sur 13 Sudeste 0 -- -- 36
2019-08-06 10:00:00 24.7 8 Sur 18 Sur 0 -- -- 51
2019-08-06 09:00:00 21.2 10 Sur 15 Sudoeste 0 -- -- 73
2019-08-06 08:00:00 17.6 4 Sur 14 Sudoeste 0 -- -- 84
2019-08-06 07:00:00 17.8 9 Sudoeste 14 Sudoeste 0 -- -- 85
2019-08-06 06:00:00 18.2 8 Sudoeste 14 Sudoeste 0 -- -- 83
2019-08-06 05:00:00 18.3 5 Sur 17 Sudeste 0 -- -- 82
2019-08-06 04:00:00 19.6 12 Sur 20 Sur 0 -- -- 77
2019-08-06 03:00:00 20.2 12 Sur 18 Sur 0 -- -- 75
2019-08-06 02:00:00 21.1 13 Sur 21 Sur 0 -- -- 69
2019-08-06 01:00:00 20.9 10 Sudoeste 14 Sudoeste 0 -- -- 49
2019-08-06 00:00:00 22.3 10 Sudoeste 14 Sudoeste 0 -- -- 38
2019-08-05 23:00:00 24.2 5 Sur 15 Sudeste 0 -- -- 43
2019-08-05 22:00:00 27.8 12 Noroeste 18 Oeste 0 -- -- 19
2019-08-05 21:00:00 30.3 7 Oeste 24 Oeste 0 -- -- 15
2019-08-05 20:00:00 32.8 18 Oeste 32 Sudoeste 0 -- -- 13
2019-08-05 19:00:00 34.3 17 Oeste 31 Sudoeste 0 -- -- 12
2019-08-05 18:00:00 34.5 17 Sudoeste 35 Sudoeste 0 -- -- 13
2019-08-05 17:00:00 35.2 15 Oeste 36 Sudoeste 0 -- -- 13
2019-08-05 16:00:00 35.1 15 Oeste 34 Oeste 0 -- -- 15
2019-08-05 15:00:00 34.4 13 Sur 26 Oeste 0 -- -- 17
2019-08-05 14:00:00 34.2 12 Sudoeste 29 Sudoeste 0 -- -- 16
2019-08-05 13:00:00 33.4 8 Oeste 39 Oeste 0 -- -- 18
2019-08-05 12:00:00 -- -- -- -- -- -- -- -- --
2019-08-05 11:00:00 27.3 8 Sur 13 Sur 0 -- -- 40
2019-08-05 10:00:00 23.9 6 Sudoeste 10 Sudoeste 0 -- -- 52
2019-08-05 09:00:00 21 5 Sur 7 Sur 0 -- -- 61
2019-08-05 08:00:00 17.5 2 Sur 10 Sudoeste 0 -- -- 71
2019-08-05 07:00:00 16.4 6 Sudoeste 16 Sur 0 -- -- 76
2019-08-05 06:00:00 17.6 11 Sur 18 Sur 0 -- -- 74
2019-08-05 05:00:00 18.4 16 Sudoeste 23 Sur 0 -- -- 73
2019-08-05 04:00:00 19.1 14 Sur 22 Sur 0 -- -- 72
2019-08-05 03:00:00 19.8 10 Sur 19 Sudoeste 0 -- -- 66
2019-08-05 02:00:00 19.4 9 Sudoeste 19 Sudoeste 0 -- -- 71
2019-08-05 01:00:00 20.8 12 Sudoeste 18 Sudoeste 0 -- -- 66
2019-08-05 00:00:00 21.9 12 Sudoeste 17 Sudoeste 0 -- -- 62
2019-08-04 23:00:00 24.2 11 Sur 19 Sur 0 -- -- 49
2019-08-04 22:00:00 26.3 9 Noroeste 17 Noroeste 0 -- -- 23
2019-08-04 21:00:00 30.1 8 Noroeste 25 Noroeste 0 -- -- 19
2019-08-04 20:00:00 32.6 10 Oeste 28 Sudoeste 0 -- -- 19
2019-08-04 19:00:00 33.4 13 Sudoeste 30 Oeste 0 -- -- 18
2019-08-04 18:00:00 33.1 15 Sudoeste 34 Oeste 0 -- -- 19
2019-08-04 17:00:00 34.2 19 Oeste 36 Sudoeste 0 -- -- 19
2019-08-04 16:00:00 34.2 13 Sudoeste 29 Sudoeste 0 -- -- 19
2019-08-04 15:00:00 34.5 17 Oeste 32 Sudoeste 0 -- -- 19
2019-08-04 14:00:00 33.2 23 Sudoeste 40 Sudoeste 0 -- -- 19
2019-08-04 13:00:00 33 20 Oeste 33 Oeste 0 -- -- 18
2019-08-04 12:00:00 30.8 8 Sudeste 17 Sur 0 -- -- 28
2019-08-04 11:00:00 27.1 10 Sur 18 Sur 0 -- -- 41
2019-08-04 10:00:00 23.8 13 Sur 19 Sudoeste 0 -- -- 56
2019-08-04 09:00:00 21.2 9 Sudoeste 14 Sur 0 -- -- 63
2019-08-04 08:00:00 17.8 6 Sur 15 Sudoeste 0 -- -- 76
2019-08-04 07:00:00 17.1 9 Sudoeste 16 Sudoeste 0 -- -- 78
2019-08-04 06:00:00 17 4 Sudoeste 13 Sur 0 -- -- 78
2019-08-04 05:00:00 17.8 5 Sur 16 Sur 0 -- -- 73
2019-08-04 04:00:00 17.9 7 Sur 14 Sudoeste 0 -- -- 73
2019-08-04 03:00:00 18.9 11 Sudoeste 16 Sudoeste 0 -- -- 69
2019-08-04 02:00:00 19.6 10 Sudoeste 18 Sudoeste 0 -- -- 66
2019-08-04 01:00:00 20.6 12 Sudoeste 19 Sudoeste 0 -- -- 63
2019-08-04 00:00:00 21 8 Sudoeste 17 Sur 0 -- -- 63
2019-08-03 23:00:00 24.1 10 Sudoeste 21 Sudoeste 0 -- -- 51
2019-08-03 22:00:00 25.9 8 Noroeste 13 Oeste 0 -- -- 24
2019-08-03 21:00:00 29.7 7 Oeste 26 Oeste 0 -- -- 20
2019-08-03 20:00:00 32.3 14 Oeste 30 Sudoeste 0 -- -- 17
2019-08-03 19:00:00 32.6 21 Oeste 37 Sudoeste 0 -- -- 17
2019-08-03 18:00:00 34.3 14 Oeste 36 Oeste 0 -- -- 15
2019-08-03 17:00:00 34.4 17 Oeste 40 Oeste 0 -- -- 17
2019-08-03 16:00:00 34.5 17 Oeste 41 Sudoeste 0 -- -- 18
2019-08-03 15:00:00 32.9 23 Sudoeste 48 Sudoeste 0 -- -- 21
2019-08-03 14:00:00 32 24 Sur 41 Sur 0 -- -- 27
2019-08-03 13:00:00 30.4 24 Sur 34 Sur 0 -- -- 32
2019-08-03 12:00:00 28.7 17 Sur 27 Sudoeste 0 -- -- 37
2019-08-03 11:00:00 25.7 14 Sur 22 Sur 0 -- -- 44
2019-08-03 10:00:00 22.4 13 Sur 17 Sur 0 -- -- 53
2019-08-03 09:00:00 19.1 9 Sur 15 Sur 0 -- -- 64
2019-08-03 08:00:00 15.6 7 Sudoeste 10 Sudoeste 0 -- -- 75
2019-08-03 07:00:00 15.2 6 Sudoeste 13 Sudoeste 0 -- -- 76
2019-08-03 06:00:00 15.9 5 Sudoeste 10 Sudoeste 0 -- -- 73
2019-08-03 05:00:00 15.9 7 Sur 10 Sur 0 -- -- 73
2019-08-03 04:00:00 16 3 Sur 5 Sur 0 -- -- 71
2019-08-03 03:00:00 16.8 0 Calma 6 Oeste 0 -- -- 71
2019-08-03 02:00:00 18.3 2 Sur 9 Sur 0 -- -- 66
2019-08-03 01:00:00 19.2 7 Sudoeste 14 Sudoeste 0 -- -- 62
2019-08-03 00:00:00 20.6 9 Sudoeste 20 Sudoeste 0 -- -- 58
2019-08-02 23:00:00 22.3 13 Sudoeste 18 Sudoeste 0 -- -- 53
2019-08-02 22:00:00 24.6 6 Sur 22 Este 0 -- -- 47
2019-08-02 21:00:00 27.2 14 Este 28 Este 0 -- -- 39
2019-08-02 20:00:00 29.1 17 Este 30 Este 0 -- -- 35
2019-08-02 19:00:00 32.7 7 Nordeste 20 Noroeste 0 -- -- 22
2019-08-02 18:00:00 33.1 6 Nordeste 18 Norte 0 -- -- 22
2019-08-02 17:00:00 32.4 10 Nordeste 23 Este 0 -- -- 23
2019-08-02 16:00:00 31.5 9 Nordeste 30 Nordeste 0 -- -- 25
2019-08-02 15:00:00 31.4 8 Este 17 Nordeste 0 -- -- 27
2019-08-02 14:00:00 30.2 12 Nordeste 21 Nordeste 0 -- -- 27
2019-08-02 13:00:00 29 7 Nordeste 17 Norte 0 -- -- 39
2019-08-02 12:00:00 25.3 6 Nordeste 18 Nordeste 0 -- -- 53
2019-08-02 11:00:00 23.2 6 Nordeste 12 Norte 0 -- -- 60
2019-08-02 10:00:00 20.6 4 Nordeste 9 Norte 0 -- -- 70
2019-08-02 09:00:00 18.5 0 Calma 4 Nordeste 0 -- -- 77
2019-08-02 08:00:00 15.2 2 Nordeste 8 Nordeste 0 -- -- 89
2019-08-02 07:00:00 14.2 5 Nordeste 12 Nordeste 0 -- -- 93
2019-08-02 06:00:00 15.1 8 Nordeste 14 Nordeste 0 -- -- 90
2019-08-02 05:00:00 15.9 10 Norte 18 Norte 0 -- -- 88
2019-08-02 04:00:00 16.7 11 Norte 18 Norte 0 -- -- 85
2019-08-02 03:00:00 17.9 10 Norte 21 Norte 0 -- -- 80
2019-08-02 02:00:00 18.8 13 Norte 22 Norte 0 -- -- 76
2019-08-02 01:00:00 20.7 18 Norte 30 Norte 0 -- -- 62
2019-08-02 00:00:00 21.9 26 Norte 33 Norte 0 -- -- 53
2019-08-01 23:00:00 23.9 8 Noroeste 22 Noroeste 0 -- -- 34
2019-08-01 22:00:00 25.9 12 Noroeste 21 Noroeste 0 -- -- 30
2019-08-01 21:00:00 28.9 14 Noroeste 30 Noroeste 0 -- -- 24
2019-08-01 20:00:00 31 11 Noroeste 27 Oeste 0 -- -- 23
2019-08-01 19:00:00 31.7 12 Oeste 32 Oeste 0 -- -- 23
2019-08-01 18:00:00 32.5 9 Oeste 29 Oeste 0 -- -- 23
2019-08-01 17:00:00 30.5 5 Sur 21 Norte 0 -- -- 29
2019-08-01 16:00:00 31.9 8 Sudeste 22 Sudeste 0 -- -- 29
2019-08-01 15:00:00 31.3 9 Nordeste 20 Este 0 -- -- 31
2019-08-01 14:00:00 29.2 8 Este 18 Sur 0 -- -- 35
2019-08-01 13:00:00 27.8 9 Sur 23 Sur 0 -- -- 37
2019-08-01 12:00:00 25.6 16 Sur 31 Sur 0 -- -- 42
2019-08-01 11:00:00 23 19 Sur 29 Sur 0 -- -- 50
2019-08-01 10:00:00 20.5 13 Sur 25 Sur 0 -- -- 61
2019-08-01 09:00:00 17.9 12 Sur 17 Sur 0 -- -- 77
2019-08-01 08:00:00 15.3 9 Sudoeste 16 Sudoeste 0 -- -- 89
2019-08-01 07:00:00 14.3 12 Sudoeste 22 Sudoeste 0 -- -- 91
2019-08-01 06:00:00 14.2 10 Sudoeste 16 Sudoeste 0 -- -- 92
2019-08-01 05:00:00 14.8 9 Sur 14 Sudoeste 0 -- -- 92
2019-08-01 04:00:00 15.3 7 Sudoeste 16 Sur 0 -- -- 91
2019-08-01 03:00:00 16.1 9 Sur 17 Sur 0 -- -- 89
2019-08-01 02:00:00 17.2 12 Sudoeste 22 Sur 0 -- -- 85
2019-08-01 01:00:00 17.1 7 Sudoeste 13 Sur 0 -- -- 85
2019-08-01 00:00:00 17.9 8 Sudoeste 13 Sur 0 -- -- 81
2019-07-31 23:00:00 18.4 7 Sur 14 Sudoeste 0 -- -- 78
2019-07-31 22:00:00 19.9 10 Sur 26 Sur 0 -- -- 73
2019-07-31 21:00:00 21.5 19 Sur 35 Sur 0 -- -- 67
2019-07-31 20:00:00 22.4 25 Sur 42 Sur 0 -- -- 64
2019-07-31 19:00:00 24.4 31 Sur 48 Sur 0 -- -- 57
2019-07-31 18:00:00 26.7 27 Sur 45 Sur 0 -- -- 47
2019-07-31 17:00:00 27.9 26 Sudoeste 45 Sur 0 -- -- 39
2019-07-31 16:00:00 28.6 21 Sudoeste 37 Sur 0 -- -- 34
2019-07-31 15:00:00 28.3 22 Sudoeste 39 Sudoeste 0 -- -- 33
2019-07-31 14:00:00 27.1 22 Sur 40 Sudoeste 0 -- -- 39
2019-07-31 13:00:00 25.1 23 Sur 38 Sur 0 -- -- 43
2019-07-31 12:00:00 23.6 17 Sur 29 Sur 0 -- -- 48
2019-07-31 11:00:00 20.2 10 Sur 18 Sur 0 -- -- 53
2019-07-31 10:00:00 18 5 Nordeste 11 Norte 0 -- -- 53
2019-07-31 09:00:00 14.2 6 Norte 10 Nordeste 0 -- -- 61
2019-07-31 08:00:00 12.7 0 Calma -- -- 0 -- -- 66
2019-07-31 07:00:00 10.9 0 Calma 6 Nordeste 0 -- -- 72
2019-07-31 06:00:00 11.5 3 Nordeste 11 Norte 0 -- -- 70
2019-07-31 05:00:00 12.5 7 Norte 12 Norte 0 -- -- 65
2019-07-31 04:00:00 13.1 8 Norte 21 Norte 0 -- -- 63
2019-07-31 03:00:00 14 10 Norte 22 Noroeste 0 -- -- 60
2019-07-31 02:00:00 15 14 Norte 23 Norte 0 -- -- 56
2019-07-31 01:00:00 16.6 17 Norte 24 Norte 0 -- -- 52
2019-07-31 00:00:00 17.3 16 Norte 27 Norte 0 -- -- 51
2019-07-30 23:00:00 17.5 14 Norte 23 Norte 0 -- -- 51
2019-07-30 22:00:00 19.5 12 Nordeste 30 Nordeste 0 -- -- 43
2019-07-30 21:00:00 22 17 Este 29 Este 0 -- -- 40
2019-07-30 20:00:00 24.3 18 Este 31 Nordeste 0 -- -- 37
2019-07-30 19:00:00 26.4 16 Este 33 Nordeste 0 -- -- 34
2019-07-30 18:00:00 27.4 21 Norte 36 Norte 0 -- -- 32
2019-07-30 17:00:00 28 18 Nordeste 31 Nordeste 0 -- -- 31
2019-07-30 16:00:00 26.7 16 Nordeste 28 Nordeste 0 -- -- 34
2019-07-30 15:00:00 25.5 18 Norte 30 Norte 0 -- -- 36
2019-07-30 14:00:00 24.1 16 Norte 28 Norte 0 -- -- 40
2019-07-30 13:00:00 22.6 16 Norte 27 Norte 0 -- -- 44
2019-07-30 12:00:00 20.3 17 Norte 25 Norte 0 -- -- 52
2019-07-30 11:00:00 18.4 16 Norte 28 Nordeste 0 -- -- 60
2019-07-30 10:00:00 16.6 19 Nordeste 28 Norte 0 -- -- 67
2019-07-30 09:00:00 14.6 17 Norte 26 Norte 0 -- -- 76
2019-07-30 08:00:00 13.9 12 Norte 18 Norte 0 -- -- 79
2019-07-30 07:00:00 12.9 14 Norte 22 Norte 0 -- -- 81
2019-07-30 06:00:00 12.4 7 Norte 10 Norte 0 -- -- 83
2019-07-30 05:00:00 13.7 8 Noroeste 10 Noroeste 0 -- -- 55
2019-07-30 04:00:00 14.6 3 Norte 14 Norte 0 -- -- 78
2019-07-30 03:00:00 17.2 14 Norte 20 Norte 0 -- -- 70
2019-07-30 02:00:00 18.1 15 Norte 23 Norte 0 -- -- 64
2019-07-30 01:00:00 20.3 17 Norte 26 Norte 0 -- -- 36
2019-07-30 00:00:00 22.4 9 Noroeste 23 Noroeste 0 -- -- 24
2019-07-29 23:00:00 23.6 11 Noroeste 17 Noroeste 0 -- -- 29
2019-07-29 22:00:00 24.1 6 Oeste 25 Noroeste 0 -- -- 32
2019-07-29 21:00:00 27.7 12 Noroeste 35 Noroeste 0 -- -- 25
2019-07-29 20:00:00 29.6 20 Noroeste 31 Noroeste 0 -- -- 22
2019-07-29 19:00:00 30.9 11 Oeste 28 Oeste 0 -- -- 24
2019-07-29 18:00:00 30.5 13 Oeste 28 Sudoeste 0 -- -- 25
2019-07-29 17:00:00 31.2 12 Oeste 37 Sudoeste 0 -- -- 25
2019-07-29 16:00:00 30.7 13 Sudoeste 35 Sudoeste 0 -- -- 24
2019-07-29 15:00:00 30.4 13 Sudoeste 36 Oeste 0 -- -- 26
2019-07-29 14:00:00 30 15 Sudoeste 33 Sudoeste 0 -- -- 25
2019-07-29 13:00:00 28.6 15 Sudoeste 30 Oeste 0 -- -- 28
2019-07-29 12:00:00 27.8 19 Sudoeste 34 Sudoeste 0 -- -- 30
2019-07-29 11:00:00 24.9 12 Sur 21 Sudoeste 0 -- -- 42
2019-07-29 10:00:00 21.3 10 Sur 17 Sur 0 -- -- 46
2019-07-29 09:00:00 17.1 12 Sur 17 Sur 0 -- -- 66
2019-07-29 08:00:00 13.8 7 Sur 11 Sur 0 -- -- 63
2019-07-29 07:00:00 11.4 3 Sur 11 Sudoeste 0 -- -- 65
2019-07-29 06:00:00 12 5 Sur 10 Sur 0 -- -- 66
2019-07-29 05:00:00 11.9 7 Sudoeste 9 Sur 0 -- -- 74
2019-07-29 04:00:00 12.6 6 Sur 10 Sur 0 -- -- 73
2019-07-29 03:00:00 13.7 3 Sudoeste 6 Sudoeste 0 -- -- 73
2019-07-29 02:00:00 15.7 4 Sudoeste 15 Sudoeste 0 -- -- 66
2019-07-29 01:00:00 17.1 10 Oeste 15 Sudoeste 0 -- -- 59
2019-07-29 00:00:00 17.9 3 Sur 12 Sur 0 -- -- 50
2019-07-28 23:00:00 19.2 4 Oeste 10 Sudoeste 0 -- -- 43
2019-07-28 22:00:00 20 5 Norte 13 Nordeste 0 -- -- 39
2019-07-28 21:00:00 24.2 10 Norte 22 Norte 0 -- -- 29
2019-07-28 20:00:00 25.8 13 Norte 22 Norte 0 -- -- 27
2019-07-28 19:00:00 26.4 3 Este 18 Nordeste 0 -- -- 28
2019-07-28 18:00:00 26.4 3 Noroeste 19 Nordeste 0 -- -- 27
2019-07-28 17:00:00 25.8 12 Nordeste 20 Nordeste 0 -- -- 28
2019-07-28 16:00:00 24.5 6 Norte 18 Norte 0 -- -- 32
2019-07-28 15:00:00 23.8 10 Nordeste 25 Nordeste 0 -- -- 35
2019-07-28 14:00:00 22 10 Este 25 Nordeste 0 -- -- 41
2019-07-28 13:00:00 20.4 13 Nordeste 28 Norte 0 -- -- 46
2019-07-28 12:00:00 18.2 21 Norte 34 Norte 0 -- -- 51
2019-07-28 11:00:00 17 17 Norte 30 Norte 0 -- -- 57
2019-07-28 10:00:00 15.4 13 Norte 23 Norte 0 -- -- 63
2019-07-28 09:00:00 13.6 7 Norte 13 Norte 0 -- -- 74
2019-07-28 08:00:00 11.3 8 Norte 11 Norte 0 -- -- 85
2019-07-28 07:00:00 10.6 4 Noroeste 10 Norte 0 -- -- 87
2019-07-28 06:00:00 11.2 5 Norte 8 Norte 0 -- -- 85
2019-07-28 05:00:00 10.5 0 Calma 13 Norte 0 -- -- 88
2019-07-28 04:00:00 11.8 8 Norte 22 Norte 0 -- -- 81
2019-07-28 03:00:00 11.6 9 Norte 23 Norte 0 -- -- 82
2019-07-28 02:00:00 12.9 17 Norte 25 Norte 0 -- -- 79
2019-07-28 01:00:00 12.9 13 Norte 24 Norte 0 -- -- 83
2019-07-28 00:00:00 13.9 18 Norte 26 Norte 0 -- -- 80
2019-07-27 23:00:00 15.2 16 Norte 28 Norte 0 -- -- 71
2019-07-26 12:00:00 -- -- -- -- -- -- -- -- --
2019-07-26 11:00:00 23.7 12 Sudoeste 19 Sudoeste 0 -- -- 43
2019-07-26 10:00:00 21.1 9 Sur 15 Sur 0 -- -- 50
2019-07-26 09:00:00 19.7 8 Sudeste 14 Sudeste 0 -- -- 56
2019-07-26 08:00:00 18.8 4 Sudeste 14 Sur 0 -- -- 56
2019-07-26 07:00:00 17.7 9 Sur 15 Sur 0 -- -- 59
2019-07-26 06:00:00 17.9 6 Sur 12 Sur 0 -- -- 60
2019-07-26 05:00:00 18.1 8 Sur 15 Sudoeste 0 -- -- 62
2019-07-26 04:00:00 18.4 9 Sur 17 Sur 0 -- -- 62
2019-07-26 03:00:00 19.4 12 Sur 19 Sur 0 -- -- 60
2019-07-26 02:00:00 19.7 9 Sur 17 Sur 0 -- -- 60
2019-07-26 01:00:00 21.2 8 Sur 15 Sur 0 -- -- 55
2019-07-26 00:00:00 22.5 8 Sudeste 14 Sudeste 0 -- -- 51
2019-07-25 23:00:00 23 10 Sudoeste 19 Sur 0 -- -- 50
2019-07-25 22:00:00 25 12 Sur 26 Sur 0 -- -- 43
2019-07-25 21:00:00 27 16 Sur 29 Sudeste 0 -- -- 38
2019-07-25 20:00:00 27.7 6 Sudoeste 31 Este 0 -- -- 36
2019-07-25 19:00:00 29 12 Nordeste 44 Norte 0 -- -- 30
2019-07-25 18:00:00 32.8 22 Sudoeste 41 Sudoeste 0 -- -- 21
2019-07-25 17:00:00 33.2 15 Sur 42 Sur 0 -- -- 24
2019-07-25 16:00:00 31 8 Este 26 Sudoeste 0 -- -- 27
2019-07-25 15:00:00 31.3 8 Sudoeste 30 Sur 0 -- -- 25
2019-07-25 14:00:00 31.2 19 Sur 31 Sur 0 -- -- 27
2019-07-25 13:00:00 32.8 15 Sudoeste 32 Sur 0 -- -- 25
2019-07-25 12:00:00 31 16 Sur 26 Sur 0 -- -- 27
2019-07-25 11:00:00 27.8 14 Sur 26 Sur 0 -- -- 30
2019-07-25 10:00:00 25.2 15 Sur 25 Sur 0 -- -- 35
2019-07-25 09:00:00 22.1 16 Sur 27 Sur 0 -- -- 40
2019-07-25 08:00:00 20 13 Sur 22 Sudoeste 0 -- -- 45
2019-07-25 07:00:00 18 12 Sudoeste 19 Sudoeste 0 -- -- 50
2019-07-25 06:00:00 18.2 13 Sur 18 Sudoeste 0 -- -- 51
2019-07-25 05:00:00 18.6 12 Sudoeste 19 Sudoeste 0 -- -- 51
2019-07-25 04:00:00 18.2 9 Sur 16 Sur 0 -- -- 53
2019-07-25 03:00:00 18.8 7 Sur 13 Sur 0 -- -- 52
2019-07-25 02:00:00 19.9 10 Sur 18 Sudoeste 0 -- -- 50
2019-07-25 01:00:00 21 13 Sur 18 Sur 0 -- -- 46
2019-07-25 00:00:00 22.3 13 Sur 19 Sudoeste 0 -- -- 43
2019-07-24 23:00:00 23.5 12 Sur 27 Sur 0 -- -- 41
2019-07-24 22:00:00 25.8 18 Sur 29 Sur 0 -- -- 35
2019-07-24 21:00:00 29.3 17 Sudoeste 33 Sur 0 -- -- 26
2019-07-24 20:00:00 31.1 21 Sur 37 Sur 0 -- -- 23
2019-07-24 19:00:00 32.8 22 Sur 38 Sur 0 -- -- 19
2019-07-24 18:00:00 33.9 19 Sur 36 Sur 0 -- -- 19
2019-07-24 17:00:00 34 14 Sur 32 Sudoeste 0 -- -- 15
2019-07-24 16:00:00 34.2 18 Sudoeste 42 Sudoeste 0 -- -- 17
2019-07-24 15:00:00 33.9 20 Sur 38 Sur 0 -- -- 18
2019-07-24 14:00:00 33.1 20 Sur 35 Sur 0 -- -- 20
2019-07-24 13:00:00 32.1 14 Sur 30 Sur 0 -- -- 23
2019-07-24 12:00:00 29.5 10 Sur 20 Sudoeste 0 -- -- 27
2019-07-24 11:00:00 27 8 Sur 14 Sur 0 -- -- 34
2019-07-24 10:00:00 23.2 8 Sur 13 Sudoeste 0 -- -- 46
2019-07-24 09:00:00 21.4 9 Sudoeste 15 Sudoeste 0 -- -- 49
2019-07-24 08:00:00 19.7 5 Sur 13 Oeste 0 -- -- 55
2019-07-24 07:00:00 19.8 5 Oeste 13 Oeste 0 -- -- 49
2019-07-24 06:00:00 18.5 3 Oeste 16 Sudeste 0 -- -- 56
2019-07-24 05:00:00 19.6 10 Sur 14 Sur 0 -- -- 52
2019-07-24 04:00:00 20.7 6 Sudoeste 10 Sur 0 -- -- 48
2019-07-24 03:00:00 20.8 5 Oeste 7 Oeste 0 -- -- 46
2019-07-24 02:00:00 20.2 4 Este 11 Sudoeste 0 -- -- 48
2019-07-24 01:00:00 21.1 6 Sudoeste 10 Sudoeste 0 -- -- 43
2019-07-24 00:00:00 22.8 7 Sudoeste 23 Sudoeste 0 -- -- 39
2019-07-23 23:00:00 24.1 12 Sudoeste 24 Sur 0 -- -- 36
2019-07-23 22:00:00 26.1 14 Sur 31 Sur 0 -- -- 31
2019-07-23 21:00:00 28.6 21 Sur 35 Sur 0 -- -- 27
2019-07-23 20:00:00 30.9 21 Sur 38 Sudoeste 0 -- -- 22
2019-07-23 19:00:00 32.7 24 Sudoeste 46 Sudoeste 0 -- -- 20
2019-07-23 18:00:00 33.4 28 Sudoeste 44 Sudoeste 0 -- -- 17
2019-07-23 17:00:00 34.3 23 Sudoeste 45 Sudoeste 0 -- -- 16
2019-07-23 16:00:00 34.6 20 Sudoeste 43 Sudoeste 0 -- -- 16
2019-07-23 15:00:00 34.4 22 Sudoeste 39 Sur 0 -- -- 18
2019-07-23 14:00:00 33.5 23 Sur 41 Sur 0 -- -- 19
2019-07-23 13:00:00 32.4 19 Sur 30 Sur 0 -- -- 21
2019-07-23 12:00:00 30.2 17 Sur 26 Sur 0 -- -- 24
2019-07-23 11:00:00 28.8 14 Sur 21 Sur 0 -- -- 28
2019-07-23 10:00:00 25 11 Sur 15 Sur 0 -- -- 33
2019-07-23 09:00:00 20.7 8 Sudoeste 13 Sur 0 -- -- 40
2019-07-23 08:00:00 16.6 5 Sur 9 Sudoeste 0 -- -- 48
2019-07-23 07:00:00 15.7 5 Sur 9 Sudoeste 0 -- -- 50
2019-07-23 06:00:00 15.6 5 Sur 9 Sudoeste 0 -- -- 50
2019-07-23 05:00:00 16.3 6 Sudoeste 13 Sudoeste 0 -- -- 50
2019-07-23 04:00:00 17.5 9 Sudoeste 13 Sudoeste 0 -- -- 46
2019-07-23 03:00:00 17.3 9 Sudoeste 14 Sudoeste 0 -- -- 49
2019-07-23 02:00:00 17.9 5 Sudoeste 15 Sur 0 -- -- 50
2019-07-23 01:00:00 19.7 11 Sur 16 Sur 0 -- -- 45
2019-07-23 00:00:00 20.2 8 Sur 23 Sudoeste 0 -- -- 44
2019-07-22 23:00:00 22.1 15 Sudoeste 25 Sur 0 -- -- 41
2019-07-22 22:00:00 23.9 15 Sur 31 Sur 0 -- -- 37
2019-07-22 21:00:00 27.4 17 Sur 35 Sudoeste 0 -- -- 29
2019-07-22 20:00:00 30 25 Sudoeste 44 Sudoeste 0 -- -- 20
2019-07-22 19:00:00 31.5 25 Sudoeste 46 Sudoeste 0 -- -- 19
2019-07-22 18:00:00 32.9 28 Sudoeste 44 Sudoeste 0 -- -- 17
2019-07-22 17:00:00 33.4 22 Sudoeste 37 Sudoeste 0 -- -- 16
2019-07-22 16:00:00 33.8 22 Sudoeste 37 Sudoeste 0 -- -- 17
2019-07-22 15:00:00 32.2 13 Sur 31 Sur 0 -- -- 19
2019-07-22 14:00:00 31 14 Sur 24 Sur 0 -- -- 20
2019-07-22 13:00:00 29.7 13 Sur 26 Sur 0 -- -- 20
2019-07-22 12:00:00 29.3 16 Sudoeste 29 Sudoeste 0 -- -- 19
2019-07-22 11:00:00 26.8 15 Sur 23 Sur 0 -- -- 25
2019-07-22 10:00:00 24 6 Sudoeste 9 Sur 0 -- -- 32
2019-07-22 09:00:00 20.8 4 Sur 6 Sur 0 -- -- 44
2019-07-22 08:00:00 16.7 3 Sudoeste 12 Noroeste 0 -- -- 58
2019-07-22 07:00:00 15 5 Oeste 9 Oeste 0 -- -- 55
2019-07-22 06:00:00 15.1 0 Calma 4 Sur 0 -- -- 73
2019-07-22 05:00:00 16.2 3 Sudoeste 6 Sur 0 -- -- 67
2019-07-22 04:00:00 16.8 5 Sur 13 Sudeste 0 -- -- 70
2019-07-22 03:00:00 18.7 12 Sur 19 Sur 0 -- -- 58
2019-07-22 02:00:00 19.3 10 Sudoeste 20 Sudoeste 0 -- -- 56
2019-07-22 01:00:00 20.4 11 Sudoeste 17 Sudoeste 0 -- -- 50
2019-07-22 00:00:00 21.1 11 Sudoeste 22 Sudoeste 0 -- -- 50
2019-07-21 23:00:00 22.5 15 Sudoeste 25 Sudoeste 0 -- -- 47
2019-07-21 22:00:00 24.1 12 Sudoeste 28 Sur 0 -- -- 41
2019-07-21 21:00:00 27.1 19 Sur 33 Sur 0 -- -- 33
2019-07-21 20:00:00 29.3 22 Sur 35 Sur 0 -- -- 29
2019-07-21 19:00:00 30.8 23 Sur 35 Sur 0 -- -- 30
2019-07-21 18:00:00 31.9 23 Sur 37 Sur 0 -- -- 31
2019-07-21 17:00:00 32.5 24 Sur 40 Sur 0 -- -- 27
2019-07-21 16:00:00 32.6 23 Sur 40 Sudeste 0 -- -- 25
2019-07-21 15:00:00 32.5 19 Sur 36 Sur 0 -- -- 26
2019-07-21 14:00:00 32 21 Sur 38 Sudoeste 0 -- -- 25
2019-07-21 13:00:00 30.8 23 Sur 39 Sur 0 -- -- 26
2019-07-21 12:00:00 29.2 19 Sur 32 Sudoeste 0 -- -- 31
2019-07-21 11:00:00 26.6 13 Sur 22 Sur 0 -- -- 37
2019-07-21 10:00:00 23.3 13 Sur 20 Sur 0 -- -- 48
2019-07-21 09:00:00 20.4 14 Sur 21 Sur 0 -- -- 53
2019-07-21 08:00:00 18.3 8 Sudoeste 17 Sudoeste 0 -- -- 60
2019-07-21 07:00:00 17.6 10 Sudoeste 16 Sudoeste 0 -- -- 61
2019-07-21 06:00:00 17.2 8 Sudoeste 18 Sur 0 -- -- 64
2019-07-21 05:00:00 17.5 12 Sur 18 Sur 0 -- -- 64
2019-07-21 04:00:00 18 12 Sur 19 Sudoeste 0 -- -- 63
2019-07-21 03:00:00 18.6 12 Sur 21 Sur 0 -- -- 65
2019-07-21 02:00:00 19.4 14 Sur 22 Sur 0 -- -- 67
2019-07-21 01:00:00 20.4 16 Sur 27 Sur 0 -- -- 66
2019-07-21 00:00:00 21.3 17 Sur 34 Sur 0 -- -- 65